Anna Noli — IZEL — position and weather

sailwx.info

Track history (hours):
 
Tides and Currents Weather Stations Pressure Air Temp Water Temp Dewpoint Dewpoint Depression Visibility Wind Speed Wind Dir Waves Ship Positions

Anna Noli

Last reported at 2015-Mar-05 05:34 UTC. Time now 2015-Mar-05 06:39 UTC.
Position N 44°19' E 008°30'.

Length 32 m.

Type: Tug. MMSI: 247046500.

Date/timePositionNaut miles runAvg speedWind from/ knotsBaromVisibWave heightAir tempDewpointWater temp
2015-Mar-05 05:34N 44°19' E 008°30'0 0.3
2015-Mar-05 04:32N 44°19' E 008°30'1 0.8
2015-Mar-05 03:31N 44°18' E 008°29'3 3.3
2015-Mar-05 02:33N 44°16' E 008°27'3 3.1
2015-Mar-05 01:33N 44°18' E 008°29'0 0.0
2015-Mar-05 00:33N 44°18' E 008°29'1 1.0
2015-Mar-04 23:33N 44°19' E 008°31'1 1.0
2015-Mar-04 22:32N 44°18' E 008°29'0 0.0
2015-Mar-04 21:32N 44°18' E 008°29'0 0.0
2015-Mar-04 20:29N 44°18' E 008°29'0 0.0
2015-Mar-04 19:29N 44°18' E 008°29'0 0.0
2015-Mar-04 18:32N 44°18' E 008°29'0 0.0
2015-Mar-04 17:29N 44°18' E 008°29'0 0.0
2015-Mar-04 16:32N 44°18' E 008°29'0 0.0
2015-Mar-04 15:32N 44°18' E 008°29'0 0.0
2015-Mar-04 14:32N 44°18' E 008°29'0 0.0
2015-Mar-04 13:32N 44°18' E 008°29'0 0.0
2015-Mar-04 12:32N 44°18' E 008°29'1 0.6
2015-Mar-04 11:33N 44°19' E 008°30'3 2.6
2015-Mar-04 10:32N 44°17' E 008°28'0 0.1
2015-Mar-04 09:31N 44°17' E 008°28'1 1.2
2015-Mar-04 08:30N 44°16' E 008°28'1 1.1
2015-Mar-04 07:32N 44°17' E 008°28'0 0.1
2015-Mar-04 06:32N 44°17' E 008°28'2 1.8
2015-Mar-04 05:19N 44°18' E 008°29'0 0.0
2015-Mar-04 04:28N 44°18' E 008°29'0 0.0
2015-Mar-04 03:31N 44°18' E 008°29'0 0.4
2015-Mar-04 02:29N 44°19' E 008°30'0 0.4
2015-Mar-04 01:31N 44°18' E 008°29'0 0.0
2015-Mar-04 00:31N 44°18' E 008°29'0 0.0
2015-Mar-03 23:31N 44°18' E 008°29'0 0.0
2015-Mar-03 22:31N 44°18' E 008°29'0 0.0
2015-Mar-03 21:28N 44°18' E 008°29'0 0.0
2015-Mar-03 20:31N 44°18' E 008°29'0 0.0
2015-Mar-03 19:28N 44°18' E 008°29'0 0.0
2015-Mar-03 18:31N 44°18' E 008°29'0 0.0
2015-Mar-03 17:31N 44°18' E 008°29'0 0.0
2015-Mar-03 16:28N 44°18' E 008°29'0 0.0
2015-Mar-03 15:31N 44°18' E 008°29'0 0.0
2015-Mar-03 14:31N 44°18' E 008°29'0 0.0
2015-Mar-03 13:31N 44°18' E 008°29'0 0.0
2015-Mar-03 12:31N 44°18' E 008°29'0 0.0
2015-Mar-03 11:31N 44°18' E 008°29'0 0.0
2015-Mar-03 10:31N 44°18' E 008°29'2 2.2
2015-Mar-03 09:31N 44°17' E 008°28'0 0.2
2015-Mar-03 08:33N 44°16' E 008°28'2 2.4
2015-Mar-03 07:32N 44°18' E 008°29'0 0.0
2015-Mar-03 06:26N 44°18' E 008°29'0 0.0
2015-Mar-03 05:32N 44°18' E 008°29'0 0.0
2015-Mar-03 04:32N 44°18' E 008°29'0 0.0
2015-Mar-03 03:32N 44°18' E 008°29'0 0.0
2015-Mar-03 02:32N 44°18' E 008°29'0 0.0
2015-Mar-03 01:32N 44°18' E 008°29'0 0.0
2015-Mar-03 00:32N 44°18' E 008°29'0 0.0
2015-Mar-02 23:32N 44°18' E 008°29'0 0.0
2015-Mar-02 21:26N 44°18' E 008°29'0 0.0
2015-Mar-02 20:33N 44°18' E 008°29'0 0.0
2015-Mar-02 19:33N 44°18' E 008°29'0 0.0
2015-Mar-02 18:33N 44°18' E 008°29'0 0.0
2015-Mar-02 17:21N 44°18' E 008°29'0 0.0
2015-Mar-02 16:18N 44°18' E 008°29'0 0.0
2015-Mar-02 15:30N 44°18' E 008°29'0 0.0
2015-Mar-02 14:33N 44°18' E 008°29'0 0.0
2015-Mar-02 13:33N 44°18' E 008°29'0 0.0
2015-Mar-02 12:33N 44°18' E 008°29'0 0.0
2015-Mar-02 11:33N 44°18' E 008°29'0 0.0
2015-Mar-02 09:21N 44°18' E 008°29'0 0.0
2015-Mar-02 08:21N 44°18' E 008°29'0 0.0
2015-Mar-02 07:15N 44°18' E 008°29'0 0.0
2015-Mar-02 06:15N 44°18' E 008°29'0 0.0
2015-Mar-02 03:33N 44°18' E 008°29'0 0.0
2015-Mar-02 02:33N 44°18' E 008°29'0 0.0
2015-Mar-02 01:30N 44°18' E 008°29'0 0.0
2015-Mar-02 00:21N 44°18' E 008°29'0 0.0
2015-Mar-01 23:27N 44°18' E 008°29'0 0.0
2015-Mar-01 21:27N 44°18' E 008°29'0 0.0
2015-Mar-01 19:33N 44°18' E 008°29'0 0.0
2015-Mar-01 18:09N 44°18' E 008°29'0 0.0
2015-Mar-01 17:15N 44°18' E 008°29'0 0.0
2015-Mar-01 16:33N 44°18' E 008°29'0 0.0
2015-Mar-01 15:30N 44°18' E 008°29'0 0.0
2015-Mar-01 13:15N 44°18' E 008°29'0 0.0
2015-Mar-01 11:27N 44°18' E 008°29'0 0.0
2015-Mar-01 10:27N 44°18' E 008°29'0 0.0
2015-Mar-01 09:27N 44°18' E 008°29'0 0.0
2015-Mar-01 08:15N 44°18' E 008°29'0 0.0
2015-Mar-01 07:33N 44°18' E 008°29'0 0.0
2015-Mar-01 06:33N 44°18' E 008°29'0 0.0
2015-Mar-01 05:27N 44°18' E 008°29'0 0.0
2015-Mar-01 04:33N 44°18' E 008°29'0 0.0
2015-Mar-01 03:30N 44°18' E 008°29'0 0.0
2015-Mar-01 02:33N 44°18' E 008°29'0 0.0
2015-Mar-01 01:27N 44°18' E 008°29'0 0.0
2015-Mar-01 00:33N 44°18' E 008°29'0 0.0
2015-Feb-28 23:33N 44°18' E 008°29'0 0.0
2015-Feb-28 22:27N 44°18' E 008°29'0 0.0
2015-Feb-28 20:33N 44°18' E 008°29'0 0.0
2015-Feb-28 19:33N 44°18' E 008°29'0 0.0
2015-Feb-28 18:33N 44°18' E 008°29'0 0.0
2015-Feb-28 17:15N 44°18' E 008°29'0 0.0
2015-Feb-28 16:27N 44°18' E 008°29'0 0.0
2015-Feb-28 15:33N 44°18' E 008°29'0 0.0
2015-Feb-28 14:30N 44°18' E 008°29'0 0.0
2015-Feb-28 13:33N 44°18' E 008°29'0 0.0
2015-Feb-28 12:30N 44°18' E 008°29'0 0.0
2015-Feb-28 11:33N 44°18' E 008°29'0 0.0
2015-Feb-28 10:27N 44°18' E 008°29'0 0.0
2015-Feb-28 09:30N 44°18' E 008°29'0 0.0
2015-Feb-28 08:33N 44°18' E 008°29'0 0.0
2015-Feb-28 07:33N 44°18' E 008°29'0 0.0
2015-Feb-28 06:30N 44°18' E 008°29'0 0.0
2015-Feb-28 05:24N 44°18' E 008°29'0 0.0
2015-Feb-28 04:33N 44°18' E 008°29'0 0.0
2015-Feb-28 03:30N 44°18' E 008°29'0 0.0
2015-Feb-28 02:33N 44°18' E 008°29'0 0.0
2015-Feb-28 01:33N 44°18' E 008°29'0 0.0
2015-Feb-28 00:33N 44°18' E 008°29'0 0.0
2015-Feb-27 23:30N 44°18' E 008°29'0 0.0
2015-Feb-27 22:30N 44°18' E 008°29'0 0.0
2015-Feb-27 21:30N 44°18' E 008°29'0 0.0
2015-Feb-27 20:33N 44°18' E 008°29'0 0.0
2015-Feb-27 19:33N 44°18' E 008°29'0 0.4
2015-Feb-27 18:31N 44°19' E 008°30'0 0.4
2015-Feb-27 17:32N 44°18' E 008°29'0 0.0
2015-Feb-27 16:32N 44°18' E 008°29'0 0.0
2015-Feb-27 15:32N 44°18' E 008°29'0 0.0
2015-Feb-27 14:32N 44°18' E 008°29'0 0.0
2015-Feb-27 13:32N 44°18' E 008°29'0 0.0
2015-Feb-27 12:32N 44°18' E 008°29'0 0.0
2015-Feb-27 11:32N 44°18' E 008°29'0 0.0
2015-Feb-27 10:32N 44°18' E 008°29'0 0.0
2015-Feb-27 09:32N 44°18' E 008°29'0 0.0
2015-Feb-27 08:32N 44°18' E 008°29'0 0.0
2015-Feb-27 07:32N 44°18' E 008°29'0 0.0
2015-Feb-27 06:32N 44°18' E 008°29'0 0.0
2015-Feb-27 05:32N 44°18' E 008°29'0 0.0
2015-Feb-27 04:32N 44°18' E 008°29'0 0.0
2015-Feb-27 03:32N 44°18' E 008°29'0 0.0
2015-Feb-27 02:32N 44°18' E 008°29'0 0.0
2015-Feb-27 01:32N 44°18' E 008°29'0 0.0
2015-Feb-27 00:32N 44°18' E 008°29'0 0.0
2015-Feb-26 23:32N 44°18' E 008°29'0 0.0
2015-Feb-26 22:32N 44°18' E 008°29'0 0.0
2015-Feb-26 21:32N 44°18' E 008°29'0 0.0
2015-Feb-26 20:32N 44°18' E 008°29'0 0.0
2015-Feb-26 19:32N 44°18' E 008°29'0 0.0
2015-Feb-26 18:32N 44°18' E 008°29'0 0.0
2015-Feb-26 17:32N 44°18' E 008°29'0 0.0
2015-Feb-26 16:32N 44°18' E 008°29'0 0.0
2015-Feb-26 15:32N 44°18' E 008°29'0 0.0
2015-Feb-26 14:32N 44°18' E 008°29'0 0.0
2015-Feb-26 13:32N 44°18' E 008°29'0 0.0
2015-Feb-26 12:32N 44°18' E 008°29'0 0.0
2015-Feb-26 11:32N 44°18' E 008°29'0 0.0
2015-Feb-26 10:32N 44°18' E 008°29'0 0.0
2015-Feb-26 09:32N 44°18' E 008°29'2 2.2
2015-Feb-26 08:31N 44°17' E 008°28'0 0.2
2015-Feb-26 07:32N 44°16' E 008°28'3 2.8
2015-Feb-26 06:33N 44°19' E 008°30'0 0.3
2015-Feb-26 05:28N 44°18' E 008°29'0 0.0
2015-Feb-26 04:28N 44°18' E 008°29'0 0.0
2015-Feb-26 03:31N 44°18' E 008°29'0 0.0
2015-Feb-26 02:28N 44°18' E 008°29'0 0.0
2015-Feb-26 01:31N 44°18' E 008°29'0 0.0
2015-Feb-26 00:31N 44°18' E 008°29'0 0.0
2015-Feb-25 23:28N 44°18' E 008°29'0 0.0
2015-Feb-25 22:28N 44°18' E 008°29'0 0.0
2015-Feb-25 21:31N 44°18' E 008°29'0 0.0
2015-Feb-25 20:28N 44°18' E 008°29'0 0.0
2015-Feb-25 19:31N 44°18' E 008°29'0 0.0
2015-Feb-25 18:31N 44°18' E 008°29'0 0.0
2015-Feb-25 17:28N 44°18' E 008°29'0 0.0
2015-Feb-25 16:28N 44°18' E 008°29'0 0.0
2015-Feb-25 15:28N 44°18' E 008°29'0 0.0
2015-Feb-25 14:31N 44°18' E 008°29'0 0.0
2015-Feb-25 13:28N 44°18' E 008°29'0 0.0
2015-Feb-25 12:22N 44°18' E 008°29'0 0.0
2015-Feb-25 11:22N 44°18' E 008°29'0 0.0
2015-Feb-25 10:31N 44°18' E 008°29'0 0.0
2015-Feb-25 09:31N 44°18' E 008°29'0 0.0
2015-Feb-25 08:19N 44°18' E 008°29'0 0.0
2015-Feb-25 07:28N 44°18' E 008°29'0 0.0
2015-Feb-25 06:31N 44°18' E 008°29'0 0.0
2015-Feb-25 05:28N 44°18' E 008°29'0 0.0
2015-Feb-25 04:28N 44°18' E 008°29'0 0.0
2015-Feb-25 03:28N 44°18' E 008°29'0 0.0
2015-Feb-25 02:31N 44°18' E 008°29'0 0.4
2015-Feb-25 01:29N 44°19' E 008°30'0 0.1
2015-Feb-25 00:24N 44°19' E 008°30'0 0.3
2015-Feb-24 23:32N 44°19' E 008°30'1 0.6
2015-Feb-24 22:29N 44°18' E 008°29'0 0.0
2015-Feb-24 21:29N 44°18' E 008°29'0 0.0
2015-Feb-24 20:32N 44°18' E 008°29'0 0.0
2015-Feb-24 19:32N 44°18' E 008°29'0 0.0
2015-Feb-24 18:32N 44°18' E 008°29'0 0.0
2015-Feb-24 17:29N 44°18' E 008°29'0 0.0
2015-Feb-24 16:29N 44°18' E 008°29'0 0.0
2015-Feb-24 15:32N 44°18' E 008°29'0 0.0
2015-Feb-24 14:32N 44°18' E 008°29'0 0.0
2015-Feb-24 13:29N 44°18' E 008°29'0 0.0
2015-Feb-24 12:32N 44°18' E 008°29'0 0.0
2015-Feb-24 11:32N 44°18' E 008°29'0 0.0
2015-Feb-24 10:32N 44°18' E 008°29'0 0.0
2015-Feb-24 09:32N 44°18' E 008°29'0 0.0
2015-Feb-24 08:29N 44°18' E 008°29'0 0.0
2015-Feb-24 07:32N 44°18' E 008°29'0 0.0
2015-Feb-24 06:32N 44°18' E 008°29'0 0.0
2015-Feb-24 05:32N 44°18' E 008°29'1 0.6
2015-Feb-24 04:33N 44°19' E 008°30'1 0.6
2015-Feb-24 03:33N 44°18' E 008°29'0 0.0
2015-Feb-24 02:33N 44°18' E 008°29'0 0.0
2015-Feb-24 01:33N 44°18' E 008°29'0 0.0
2015-Feb-24 00:33N 44°18' E 008°29'0 0.0
2015-Feb-23 23:30N 44°18' E 008°29'0 0.0
2015-Feb-23 22:33N 44°18' E 008°29'0 0.0
2015-Feb-23 21:33N 44°18' E 008°29'0 0.0
2015-Feb-23 20:30N 44°18' E 008°29'0 0.0
2015-Feb-23 19:33N 44°18' E 008°29'0 0.0
2015-Feb-23 18:33N 44°18' E 008°29'0 0.0
2015-Feb-23 17:33N 44°18' E 008°29'0 0.0
2015-Feb-23 16:33N 44°18' E 008°29'0 0.0
2015-Feb-23 15:33N 44°18' E 008°29'0 0.0
2015-Feb-23 14:33N 44°18' E 008°29'0 0.0
2015-Feb-23 13:33N 44°18' E 008°29'0 0.0
2015-Feb-23 12:33N 44°18' E 008°29'0 0.0
2015-Feb-23 11:33N 44°18' E 008°29'0 0.0
2015-Feb-23 10:33N 44°18' E 008°29'0 0.0
2015-Feb-23 09:33N 44°18' E 008°29'0 0.0
2015-Feb-23 08:33N 44°18' E 008°29'0 0.0
2015-Feb-23 07:33N 44°18' E 008°29'0 0.0
2015-Feb-23 06:33N 44°18' E 008°29'  
Track history (hours):
 
Tides and Currents Weather Stations Pressure Air Temp Water Temp Dewpoint Dewpoint Depression Visibility Wind Speed Wind Dir Waves Ship Positions

Anna Noli

Last reported at 2015-Mar-05 05:34 UTC. Time now 2015-Mar-05 06:39 UTC.
Position N 44°19' E 008°30'.

Length 32 m.

Type: Tug. MMSI: 247046500.

Date/timePositionNaut miles runAvg speedWind from/ knotsBaromVisibWave heightAir tempDewpointWater temp
2015-Mar-05 05:34N 44°19' E 008°30'0 0.3
2015-Mar-05 04:32N 44°19' E 008°30'1 0.8
2015-Mar-05 03:31N 44°18' E 008°29'3 3.3
2015-Mar-05 02:33N 44°16' E 008°27'3 3.1
2015-Mar-05 01:33N 44°18' E 008°29'0 0.0
2015-Mar-05 00:33N 44°18' E 008°29'1 1.0
2015-Mar-04 23:33N 44°19' E 008°31'1 1.0
2015-Mar-04 22:32N 44°18' E 008°29'0 0.0
2015-Mar-04 21:32N 44°18' E 008°29'0 0.0
2015-Mar-04 20:29N 44°18' E 008°29'0 0.0
2015-Mar-04 19:29N 44°18' E 008°29'0 0.0
2015-Mar-04 18:32N 44°18' E 008°29'0 0.0
2015-Mar-04 17:29N 44°18' E 008°29'0 0.0
2015-Mar-04 16:32N 44°18' E 008°29'0 0.0
2015-Mar-04 15:32N 44°18' E 008°29'0 0.0
2015-Mar-04 14:32N 44°18' E 008°29'0 0.0
2015-Mar-04 13:32N 44°18' E 008°29'0 0.0
2015-Mar-04 12:32N 44°18' E 008°29'1 0.6
2015-Mar-04 11:33N 44°19' E 008°30'3 2.6
2015-Mar-04 10:32N 44°17' E 008°28'0 0.1
2015-Mar-04 09:31N 44°17' E 008°28'1 1.2
2015-Mar-04 08:30N 44°16' E 008°28'1 1.1
2015-Mar-04 07:32N 44°17' E 008°28'0 0.1
2015-Mar-04 06:32N 44°17' E 008°28'2 1.8
2015-Mar-04 05:19N 44°18' E 008°29'0 0.0
2015-Mar-04 04:28N 44°18' E 008°29'0 0.0
2015-Mar-04 03:31N 44°18' E 008°29'0 0.4
2015-Mar-04 02:29N 44°19' E 008°30'0 0.4
2015-Mar-04 01:31N 44°18' E 008°29'0 0.0
2015-Mar-04 00:31N 44°18' E 008°29'0 0.0
2015-Mar-03 23:31N 44°18' E 008°29'0 0.0
2015-Mar-03 22:31N 44°18' E 008°29'0 0.0
2015-Mar-03 21:28N 44°18' E 008°29'0 0.0
2015-Mar-03 20:31N 44°18' E 008°29'0 0.0
2015-Mar-03 19:28N 44°18' E 008°29'0 0.0
2015-Mar-03 18:31N 44°18' E 008°29'0 0.0
2015-Mar-03 17:31N 44°18' E 008°29'0 0.0
2015-Mar-03 16:28N 44°18' E 008°29'0 0.0
2015-Mar-03 15:31N 44°18' E 008°29'0 0.0
2015-Mar-03 14:31N 44°18' E 008°29'0 0.0
2015-Mar-03 13:31N 44°18' E 008°29'0 0.0
2015-Mar-03 12:31N 44°18' E 008°29'0 0.0
2015-Mar-03 11:31N 44°18' E 008°29'0 0.0
2015-Mar-03 10:31N 44°18' E 008°29'2 2.2
2015-Mar-03 09:31N 44°17' E 008°28'0 0.2
2015-Mar-03 08:33N 44°16' E 008°28'2 2.4
2015-Mar-03 07:32N 44°18' E 008°29'0 0.0
2015-Mar-03 06:26N 44°18' E 008°29'0 0.0
2015-Mar-03 05:32N 44°18' E 008°29'0 0.0
2015-Mar-03 04:32N 44°18' E 008°29'0 0.0
2015-Mar-03 03:32N 44°18' E 008°29'0 0.0
2015-Mar-03 02:32N 44°18' E 008°29'0 0.0
2015-Mar-03 01:32N 44°18' E 008°29'0 0.0
2015-Mar-03 00:32N 44°18' E 008°29'0 0.0
2015-Mar-02 23:32N 44°18' E 008°29'0 0.0
2015-Mar-02 21:26N 44°18' E 008°29'0 0.0
2015-Mar-02 20:33N 44°18' E 008°29'0 0.0
2015-Mar-02 19:33N 44°18' E 008°29'0 0.0
2015-Mar-02 18:33N 44°18' E 008°29'0 0.0
2015-Mar-02 17:21N 44°18' E 008°29'0 0.0
2015-Mar-02 16:18N 44°18' E 008°29'0 0.0
2015-Mar-02 15:30N 44°18' E 008°29'0 0.0
2015-Mar-02 14:33N 44°18' E 008°29'0 0.0
2015-Mar-02 13:33N 44°18' E 008°29'0 0.0
2015-Mar-02 12:33N 44°18' E 008°29'0 0.0
2015-Mar-02 11:33N 44°18' E 008°29'0 0.0
2015-Mar-02 09:21N 44°18' E 008°29'0 0.0
2015-Mar-02 08:21N 44°18' E 008°29'0 0.0
2015-Mar-02 07:15N 44°18' E 008°29'0 0.0
2015-Mar-02 06:15N 44°18' E 008°29'0 0.0
2015-Mar-02 03:33N 44°18' E 008°29'0 0.0
2015-Mar-02 02:33N 44°18' E 008°29'0 0.0
2015-Mar-02 01:30N 44°18' E 008°29'0 0.0
2015-Mar-02 00:21N 44°18' E 008°29'0 0.0
2015-Mar-01 23:27N 44°18' E 008°29'0 0.0
2015-Mar-01 21:27N 44°18' E 008°29'0 0.0
2015-Mar-01 19:33N 44°18' E 008°29'0 0.0
2015-Mar-01 18:09N 44°18' E 008°29'0 0.0
2015-Mar-01 17:15N 44°18' E 008°29'0 0.0
2015-Mar-01 16:33N 44°18' E 008°29'0 0.0
2015-Mar-01 15:30N 44°18' E 008°29'0 0.0
2015-Mar-01 13:15N 44°18' E 008°29'0 0.0
2015-Mar-01 11:27N 44°18' E 008°29'0 0.0
2015-Mar-01 10:27N 44°18' E 008°29'0 0.0
2015-Mar-01 09:27N 44°18' E 008°29'0 0.0
2015-Mar-01 08:15N 44°18' E 008°29'0 0.0
2015-Mar-01 07:33N 44°18' E 008°29'0 0.0
2015-Mar-01 06:33N 44°18' E 008°29'0 0.0
2015-Mar-01 05:27N 44°18' E 008°29'0 0.0
2015-Mar-01 04:33N 44°18' E 008°29'0 0.0
2015-Mar-01 03:30N 44°18' E 008°29'0 0.0
2015-Mar-01 02:33N 44°18' E 008°29'0 0.0
2015-Mar-01 01:27N 44°18' E 008°29'0 0.0
2015-Mar-01 00:33N 44°18' E 008°29'0 0.0
2015-Feb-28 23:33N 44°18' E 008°29'0 0.0
2015-Feb-28 22:27N 44°18' E 008°29'0 0.0
2015-Feb-28 20:33N 44°18' E 008°29'0 0.0
2015-Feb-28 19:33N 44°18' E 008°29'0 0.0
2015-Feb-28 18:33N 44°18' E 008°29'0 0.0
2015-Feb-28 17:15N 44°18' E 008°29'0 0.0
2015-Feb-28 16:27N 44°18' E 008°29'0 0.0
2015-Feb-28 15:33N 44°18' E 008°29'0 0.0
2015-Feb-28 14:30N 44°18' E 008°29'0 0.0
2015-Feb-28 13:33N 44°18' E 008°29'0 0.0
2015-Feb-28 12:30N 44°18' E 008°29'0 0.0
2015-Feb-28 11:33N 44°18' E 008°29'0 0.0
2015-Feb-28 10:27N 44°18' E 008°29'0 0.0
2015-Feb-28 09:30N 44°18' E 008°29'0 0.0
2015-Feb-28 08:33N 44°18' E 008°29'0 0.0
2015-Feb-28 07:33N 44°18' E 008°29'0 0.0
2015-Feb-28 06:30N 44°18' E 008°29'0 0.0
2015-Feb-28 05:24N 44°18' E 008°29'0 0.0
2015-Feb-28 04:33N 44°18' E 008°29'0 0.0
2015-Feb-28 03:30N 44°18' E 008°29'0 0.0
2015-Feb-28 02:33N 44°18' E 008°29'0 0.0
2015-Feb-28 01:33N 44°18' E 008°29'0 0.0
2015-Feb-28 00:33N 44°18' E 008°29'0 0.0
2015-Feb-27 23:30N 44°18' E 008°29'0 0.0
2015-Feb-27 22:30N 44°18' E 008°29'0 0.0
2015-Feb-27 21:30N 44°18' E 008°29'0 0.0
2015-Feb-27 20:33N 44°18' E 008°29'0 0.0
2015-Feb-27 19:33N 44°18' E 008°29'0 0.4
2015-Feb-27 18:31N 44°19' E 008°30'0 0.4
2015-Feb-27 17:32N 44°18' E 008°29'0 0.0
2015-Feb-27 16:32N 44°18' E 008°29'0 0.0
2015-Feb-27 15:32N 44°18' E 008°29'0 0.0
2015-Feb-27 14:32N 44°18' E 008°29'0 0.0
2015-Feb-27 13:32N 44°18' E 008°29'0 0.0
2015-Feb-27 12:32N 44°18' E 008°29'0 0.0
2015-Feb-27 11:32N 44°18' E 008°29'0 0.0
2015-Feb-27 10:32N 44°18' E 008°29'0 0.0
2015-Feb-27 09:32N 44°18' E 008°29'0 0.0
2015-Feb-27 08:32N 44°18' E 008°29'0 0.0
2015-Feb-27 07:32N 44°18' E 008°29'0 0.0
2015-Feb-27 06:32N 44°18' E 008°29'0 0.0
2015-Feb-27 05:32N 44°18' E 008°29'0 0.0
2015-Feb-27 04:32N 44°18' E 008°29'0 0.0
2015-Feb-27 03:32N 44°18' E 008°29'0 0.0
2015-Feb-27 02:32N 44°18' E 008°29'0 0.0
2015-Feb-27 01:32N 44°18' E 008°29'0 0.0
2015-Feb-27 00:32N 44°18' E 008°29'0 0.0
2015-Feb-26 23:32N 44°18' E 008°29'0 0.0
2015-Feb-26 22:32N 44°18' E 008°29'0 0.0
2015-Feb-26 21:32N 44°18' E 008°29'0 0.0
2015-Feb-26 20:32N 44°18' E 008°29'0 0.0
2015-Feb-26 19:32N 44°18' E 008°29'0 0.0
2015-Feb-26 18:32N 44°18' E 008°29'0 0.0
2015-Feb-26 17:32N 44°18' E 008°29'0 0.0
2015-Feb-26 16:32N 44°18' E 008°29'0 0.0
2015-Feb-26 15:32N 44°18' E 008°29'0 0.0
2015-Feb-26 14:32N 44°18' E 008°29'0 0.0
2015-Feb-26 13:32N 44°18' E 008°29'0 0.0
2015-Feb-26 12:32N 44°18' E 008°29'0 0.0
2015-Feb-26 11:32N 44°18' E 008°29'0 0.0
2015-Feb-26 10:32N 44°18' E 008°29'0 0.0
2015-Feb-26 09:32N 44°18' E 008°29'2 2.2
2015-Feb-26 08:31N 44°17' E 008°28'0 0.2
2015-Feb-26 07:32N 44°16' E 008°28'3 2.8
2015-Feb-26 06:33N 44°19' E 008°30'0 0.3
2015-Feb-26 05:28N 44°18' E 008°29'0 0.0
2015-Feb-26 04:28N 44°18' E 008°29'0 0.0
2015-Feb-26 03:31N 44°18' E 008°29'0 0.0
2015-Feb-26 02:28N 44°18' E 008°29'0 0.0
2015-Feb-26 01:31N 44°18' E 008°29'0 0.0
2015-Feb-26 00:31N 44°18' E 008°29'0 0.0
2015-Feb-25 23:28N 44°18' E 008°29'0 0.0
2015-Feb-25 22:28N 44°18' E 008°29'0 0.0
2015-Feb-25 21:31N 44°18' E 008°29'0 0.0
2015-Feb-25 20:28N 44°18' E 008°29'0 0.0
2015-Feb-25 19:31N 44°18' E 008°29'0 0.0
2015-Feb-25 18:31N 44°18' E 008°29'0 0.0
2015-Feb-25 17:28N 44°18' E 008°29'0 0.0
2015-Feb-25 16:28N 44°18' E 008°29'0 0.0
2015-Feb-25 15:28N 44°18' E 008°29'0 0.0
2015-Feb-25 14:31N 44°18' E 008°29'0 0.0
2015-Feb-25 13:28N 44°18' E 008°29'0 0.0
2015-Feb-25 12:22N 44°18' E 008°29'0 0.0
2015-Feb-25 11:22N 44°18' E 008°29'0 0.0
2015-Feb-25 10:31N 44°18' E 008°29'0 0.0
2015-Feb-25 09:31N 44°18' E 008°29'0 0.0
2015-Feb-25 08:19N 44°18' E 008°29'0 0.0
2015-Feb-25 07:28N 44°18' E 008°29'0 0.0
2015-Feb-25 06:31N 44°18' E 008°29'0 0.0
2015-Feb-25 05:28N 44°18' E 008°29'0 0.0
2015-Feb-25 04:28N 44°18' E 008°29'0 0.0
2015-Feb-25 03:28N 44°18' E 008°29'0 0.0
2015-Feb-25 02:31N 44°18' E 008°29'0 0.4
2015-Feb-25 01:29N 44°19' E 008°30'0 0.1
2015-Feb-25 00:24N 44°19' E 008°30'0 0.3
2015-Feb-24 23:32N 44°19' E 008°30'1 0.6
2015-Feb-24 22:29N 44°18' E 008°29'0 0.0
2015-Feb-24 21:29N 44°18' E 008°29'0 0.0
2015-Feb-24 20:32N 44°18' E 008°29'0 0.0
2015-Feb-24 19:32N 44°18' E 008°29'0 0.0
2015-Feb-24 18:32N 44°18' E 008°29'0 0.0
2015-Feb-24 17:29N 44°18' E 008°29'0 0.0
2015-Feb-24 16:29N 44°18' E 008°29'0 0.0
2015-Feb-24 15:32N 44°18' E 008°29'0 0.0
2015-Feb-24 14:32N 44°18' E 008°29'0 0.0
2015-Feb-24 13:29N 44°18' E 008°29'0 0.0
2015-Feb-24 12:32N 44°18' E 008°29'0 0.0
2015-Feb-24 11:32N 44°18' E 008°29'0 0.0
2015-Feb-24 10:32N 44°18' E 008°29'0 0.0
2015-Feb-24 09:32N 44°18' E 008°29'0 0.0
2015-Feb-24 08:29N 44°18' E 008°29'0 0.0
2015-Feb-24 07:32N 44°18' E 008°29'0 0.0
2015-Feb-24 06:32N 44°18' E 008°29'0 0.0
2015-Feb-24 05:32N 44°18' E 008°29'1 0.6
2015-Feb-24 04:33N 44°19' E 008°30'1 0.6
2015-Feb-24 03:33N 44°18' E 008°29'0 0.0
2015-Feb-24 02:33N 44°18' E 008°29'0 0.0
2015-Feb-24 01:33N 44°18' E 008°29'0 0.0
2015-Feb-24 00:33N 44°18' E 008°29'0 0.0
2015-Feb-23 23:30N 44°18' E 008°29'0 0.0
2015-Feb-23 22:33N 44°18' E 008°29'0 0.0
2015-Feb-23 21:33N 44°18' E 008°29'0 0.0
2015-Feb-23 20:30N 44°18' E 008°29'0 0.0
2015-Feb-23 19:33N 44°18' E 008°29'0 0.0
2015-Feb-23 18:33N 44°18' E 008°29'0 0.0
2015-Feb-23 17:33N 44°18' E 008°29'0 0.0
2015-Feb-23 16:33N 44°18' E 008°29'0 0.0
2015-Feb-23 15:33N 44°18' E 008°29'0 0.0
2015-Feb-23 14:33N 44°18' E 008°29'0 0.0
2015-Feb-23 13:33N 44°18' E 008°29'0 0.0
2015-Feb-23 12:33N 44°18' E 008°29'0 0.0
2015-Feb-23 11:33N 44°18' E 008°29'0 0.0
2015-Feb-23 10:33N 44°18' E 008°29'0 0.0
2015-Feb-23 09:33N 44°18' E 008°29'0 0.0
2015-Feb-23 08:33N 44°18' E 008°29'0 0.0
2015-Feb-23 07:33N 44°18' E 008°29'0 0.0
2015-Feb-23 06:33N 44°18' E 008°29'  

Dump ship's entire track history